createdAt,value
2023-01-31T00:00:00.129Z,100668.41
2023-01-31T00:02:32.347Z,100662.06
2023-01-31T00:05:03.165Z,100656.56
2023-01-31T00:07:31.238Z,100664.72
2023-01-31T00:09:59.241Z,100676.41
2023-01-31T00:12:27.603Z,100675.84
2023-01-31T00:14:55.541Z,100684.06
2023-01-31T00:17:23.597Z,100685.00
2023-01-31T00:19:53.209Z,100689.00
2023-01-31T00:22:21.282Z,100689.00
2023-01-31T00:24:49.280Z,100671.72
2023-01-31T00:27:17.663Z,100695.25
2023-01-31T00:29:45.724Z,100686.03
2023-01-31T00:32:13.841Z,100694.84
2023-01-31T00:34:42.111Z,100684.16
2023-01-31T00:37:11.399Z,100688.78
2023-01-31T00:39:39.380Z,100692.53
2023-01-31T00:42:07.822Z,100690.47
2023-01-31T00:44:37.181Z,100700.06
2023-01-31T00:47:05.770Z,100698.41
2023-01-31T00:49:35.333Z,100697.34
2023-01-31T00:52:03.782Z,100695.47
2023-01-31T00:54:34.094Z,100710.84
2023-01-31T00:57:02.647Z,100690.34
2023-01-31T00:59:31.034Z,100712.75
2023-01-31T01:01:59.110Z,100722.50
2023-01-31T01:04:27.397Z,100723.53
2023-01-31T01:06:55.427Z,100735.03
2023-01-31T01:09:23.858Z,100739.63
2023-01-31T01:11:54.610Z,100745.19
2023-01-31T01:14:22.641Z,100737.31
2023-01-31T01:16:50.968Z,100746.34
2023-01-31T01:19:21.801Z,100748.19
2023-01-31T01:21:49.904Z,100750.53
2023-01-31T01:24:19.706Z,100748.41
2023-01-31T01:26:48.630Z,100755.34
2023-01-31T01:29:17.950Z,100752.59
2023-01-31T01:31:46.200Z,100746.75
2023-01-31T01:34:16.859Z,100746.47
2023-01-31T01:36:47.807Z,100754.47
2023-01-31T01:39:18.075Z,100757.75
2023-01-31T01:41:47.482Z,100749.63
2023-01-31T01:44:46.369Z,100744.47
2023-01-31T01:47:24.174Z,100752.47
2023-01-31T01:49:55.629Z,100747.75
2023-01-31T01:52:27.468Z,100759.25
2023-01-31T01:54:59.568Z,100756.97
2023-01-31T01:57:32.611Z,100754.63
2023-01-31T02:00:10.877Z,100762.19
2023-01-31T02:02:44.049Z,100760.47
2023-01-31T02:05:15.922Z,100766.03
2023-01-31T02:07:44.794Z,100766.84
2023-01-31T02:10:18.631Z,100773.50
2023-01-31T02:12:47.270Z,100771.06
2023-01-31T02:15:17.704Z,100781.47
2023-01-31T02:17:45.898Z,100782.78
2023-01-31T02:20:44.883Z,100785.47
2023-01-31T02:23:37.228Z,100790.34
2023-01-31T02:26:41.804Z,100789.34
2023-01-31T02:29:34.183Z,100795.50
2023-01-31T02:32:36.669Z,100796.47
2023-01-31T02:35:11.393Z,100799.34
2023-01-31T02:37:50.421Z,100805.31
2023-01-31T02:40:25.385Z,100811.06
2023-01-31T02:43:01.511Z,100805.63
2023-01-31T02:45:38.968Z,100812.97
2023-01-31T02:48:19.189Z,100812.50
2023-01-31T02:51:01.312Z,100828.56
2023-01-31T02:53:34.197Z,100822.00
2023-01-31T02:56:15.297Z,100827.69
2023-01-31T02:58:50.553Z,100815.09
2023-01-31T03:01:24.576Z,100824.28
2023-01-31T03:03:58.335Z,100830.63
2023-01-31T03:06:59.905Z,100831.62
2023-01-31T03:09:38.544Z,100834.78
2023-01-31T03:12:40.885Z,100836.06
2023-01-31T03:16:02.369Z,100834.50
2023-01-31T03:18:36.374Z,100834.78
2023-01-31T03:21:10.010Z,100839.78
2023-01-31T03:23:42.140Z,100837.78
2023-01-31T03:26:11.407Z,100838.13
2023-01-31T03:28:42.983Z,100838.31
2023-01-31T03:31:18.748Z,100836.97
2023-01-31T03:33:50.603Z,100839.84
2023-01-31T03:36:29.668Z,100837.78
2023-01-31T03:39:08.059Z,100835.78
2023-01-31T03:41:48.099Z,100836.06
2023-01-31T03:44:22.977Z,100841.53
2023-01-31T03:46:57.256Z,100847.22
2023-01-31T03:49:28.610Z,100852.94
2023-01-31T03:52:04.210Z,100855.47
2023-01-31T03:54:37.987Z,100854.97
2023-01-31T03:57:13.284Z,100854.09
2023-01-31T03:59:44.625Z,100852.97
2023-01-31T04:02:17.491Z,100848.06
2023-01-31T04:04:51.787Z,100855.50
2023-01-31T04:07:21.275Z,100850.56
2023-01-31T04:09:49.857Z,100849.94
2023-01-31T04:12:17.936Z,100851.94
2023-01-31T04:14:46.133Z,100844.13
2023-01-31T04:17:14.512Z,100846.34
2023-01-31T04:19:42.783Z,100856.00
2023-01-31T04:22:10.862Z,100848.81
2023-01-31T04:24:40.660Z,100845.66
2023-01-31T04:27:08.663Z,100853.22
2023-01-31T04:29:36.746Z,100841.72
2023-01-31T04:32:05.405Z,100855.53
2023-01-31T04:34:33.403Z,100858.69
2023-01-31T04:37:01.367Z,100859.25
2023-01-31T04:39:29.943Z,100859.25
2023-01-31T04:41:59.242Z,100859.94
2023-01-31T04:44:27.346Z,100861.75
2023-01-31T04:46:55.816Z,100872.59
2023-01-31T04:49:23.997Z,100871.22
2023-01-31T04:51:52.183Z,100871.16
2023-01-31T04:54:20.697Z,100878.28
2023-01-31T04:56:48.753Z,100861.28
2023-01-31T04:59:18.104Z,100855.69
2023-01-31T05:01:47.054Z,100864.47
2023-01-31T05:04:15.108Z,100873.00
2023-01-31T05:06:43.120Z,100863.06
2023-01-31T05:09:12.878Z,100869.03
2023-01-31T05:11:41.440Z,100862.84
2023-01-31T05:14:09.400Z,100862.62
2023-01-31T05:16:39.023Z,100866.97
2023-01-31T05:19:07.255Z,100868.28
2023-01-31T05:21:54.863Z,100856.63
2023-01-31T05:24:23.774Z,100861.50
2023-01-31T05:26:54.014Z,100868.25
2023-01-31T05:29:22.197Z,100865.94
2023-01-31T05:31:53.378Z,100859.66
2023-01-31T05:34:21.674Z,100869.62
2023-01-31T05:36:49.804Z,100869.56
2023-01-31T05:39:18.285Z,100874.44
2023-01-31T05:41:46.501Z,100868.97
2023-01-31T05:44:16.306Z,100880.53
2023-01-31T05:46:44.606Z,100877.63
2023-01-31T05:49:14.065Z,100875.97
2023-01-31T05:51:42.543Z,100878.69
2023-01-31T05:54:12.727Z,100880.19
2023-01-31T05:56:40.866Z,100897.56
2023-01-31T05:59:09.054Z,100897.09
2023-01-31T06:01:37.454Z,100899.50
2023-01-31T06:04:06.015Z,100906.00
2023-01-31T06:06:35.443Z,100894.31
2023-01-31T06:09:03.521Z,100896.94
2023-01-31T06:11:31.985Z,100899.97
2023-01-31T06:14:00.000Z,100894.00
2023-01-31T06:16:28.170Z,100893.84
2023-01-31T06:18:57.085Z,100898.22
2023-01-31T06:21:25.138Z,100890.56
2023-01-31T06:23:54.508Z,100889.56
2023-01-31T06:26:22.845Z,100892.03
2023-01-31T06:28:50.838Z,100900.59
2023-01-31T06:31:19.555Z,100895.97
2023-01-31T06:33:48.304Z,100894.78
2023-01-31T06:36:19.270Z,100890.03
2023-01-31T06:38:51.363Z,100896.47
2023-01-31T06:41:21.805Z,100902.97
2023-01-31T06:43:51.321Z,100902.78
2023-01-31T06:46:19.526Z,100902.53
2023-01-31T06:48:48.456Z,100894.94
2023-01-31T06:51:17.003Z,100909.19
2023-01-31T06:53:45.078Z,100904.97
2023-01-31T06:56:13.121Z,100908.66
2023-01-31T06:58:42.718Z,100924.03
2023-01-31T07:01:12.447Z,100915.13
2023-01-31T07:03:40.936Z,100926.03
2023-01-31T07:06:10.852Z,100927.72
2023-01-31T07:08:39.238Z,100928.16
2023-01-31T07:11:07.718Z,100932.75
2023-01-31T07:13:36.144Z,100929.19
2023-01-31T07:16:06.358Z,100938.44
2023-01-31T07:18:34.727Z,100933.84
2023-01-31T07:21:03.120Z,100945.81
2023-01-31T07:23:31.208Z,100938.37
2023-01-31T07:26:02.238Z,100937.50
2023-01-31T07:28:31.202Z,100935.56
2023-01-31T07:31:06.694Z,100930.34
2023-01-31T07:33:35.089Z,100920.56
2023-01-31T07:36:04.615Z,100919.38
2023-01-31T07:38:33.191Z,100904.56
2023-01-31T07:41:03.162Z,100905.41
2023-01-31T07:43:32.539Z,100899.03
2023-01-31T07:46:00.541Z,100893.25
2023-01-31T07:48:30.081Z,100895.03
2023-01-31T07:51:01.064Z,100893.94
2023-01-31T07:53:31.889Z,100894.31
2023-01-31T07:56:07.188Z,100889.09
2023-01-31T07:58:36.926Z,100891.03
2023-01-31T08:01:23.368Z,100881.41
2023-01-31T08:03:53.578Z,100882.31
2023-01-31T08:06:21.618Z,100872.97
2023-01-31T08:08:49.607Z,100870.87
2023-01-31T08:11:17.956Z,100869.44
2023-01-31T08:13:45.972Z,100868.66
2023-01-31T08:16:14.074Z,100854.22
2023-01-31T08:18:42.492Z,100864.84
2023-01-31T08:21:14.530Z,100860.75
2023-01-31T08:23:43.356Z,100873.72
2023-01-31T08:26:14.196Z,100865.44
2023-01-31T08:28:44.014Z,100865.50
2023-01-31T08:31:15.305Z,100863.41
2023-01-31T08:33:44.103Z,100854.00
2023-01-31T08:36:18.075Z,100853.13
2023-01-31T08:38:46.752Z,100852.31
2023-01-31T08:41:16.974Z,100849.31
2023-01-31T08:43:55.910Z,100851.09
2023-01-31T08:46:27.251Z,100840.63
2023-01-31T08:48:55.583Z,100832.22
2023-01-31T08:51:25.236Z,100840.13
2023-01-31T08:53:53.637Z,100833.28
2023-01-31T08:56:25.395Z,100824.88
2023-01-31T08:58:55.249Z,100825.72
2023-01-31T09:01:23.437Z,100826.28
2023-01-31T09:03:56.473Z,100823.00
2023-01-31T09:06:28.027Z,100829.00
2023-01-31T09:08:57.834Z,100813.56
2023-01-31T09:11:28.832Z,100817.56
2023-01-31T09:13:57.623Z,100819.72
2023-01-31T09:16:26.118Z,100811.47
2023-01-31T09:18:56.032Z,100822.06
2023-01-31T09:21:26.257Z,100821.06
2023-01-31T09:24:00.231Z,100815.94
2023-01-31T09:26:28.362Z,100809.91
2023-01-31T09:28:57.914Z,100806.72
2023-01-31T09:31:26.138Z,100816.78
2023-01-31T09:33:54.783Z,100809.94
2023-01-31T09:36:24.923Z,100809.81
2023-01-31T09:38:57.018Z,100806.56
2023-01-31T09:41:31.949Z,100804.47
2023-01-31T09:44:03.796Z,100799.97
2023-01-31T09:46:38.086Z,100809.09
2023-01-31T09:49:11.734Z,100817.16
2023-01-31T09:51:40.739Z,100816.22
2023-01-31T09:54:20.787Z,100808.38
2023-01-31T09:56:57.231Z,100805.22
2023-01-31T09:59:31.979Z,100805.25
2023-01-31T10:02:07.977Z,100801.53
2023-01-31T10:04:47.281Z,100793.50
2023-01-31T10:07:21.251Z,100798.06
2023-01-31T10:09:56.617Z,100798.44
2023-01-31T10:12:31.675Z,100782.81
2023-01-31T10:15:03.550Z,100796.22
2023-01-31T10:17:35.196Z,100788.41
2023-01-31T10:20:08.133Z,100800.63
2023-01-31T10:22:40.835Z,100795.38
2023-01-31T10:25:25.424Z,100780.66
2023-01-31T10:28:00.427Z,100768.59
2023-01-31T10:30:38.386Z,100762.09
2023-01-31T10:33:19.707Z,100753.41
2023-01-31T10:35:51.373Z,100742.94
2023-01-31T10:38:24.748Z,100734.06
2023-01-31T10:41:00.698Z,100729.78
2023-01-31T10:43:40.472Z,100730.19
2023-01-31T10:46:12.564Z,100722.06
2023-01-31T10:48:44.394Z,100713.94
2023-01-31T10:51:27.813Z,100712.59
2023-01-31T10:54:13.123Z,100697.09
2023-01-31T10:56:45.763Z,100696.28
2023-01-31T10:59:18.757Z,100692.91
2023-01-31T11:01:47.347Z,100680.03
2023-01-31T11:04:29.055Z,100670.59
2023-01-31T11:06:58.972Z,100688.91
2023-01-31T11:09:30.227Z,100675.34
2023-01-31T11:12:02.408Z,100678.22
2023-01-31T11:14:31.529Z,100670.78
2023-01-31T11:17:03.886Z,100659.78
2023-01-31T11:19:36.868Z,100652.91
2023-01-31T11:22:05.675Z,100651.72
2023-01-31T11:24:36.502Z,100636.91
2023-01-31T11:27:08.640Z,100643.59
2023-01-31T11:29:41.246Z,100625.50
2023-01-31T11:32:19.318Z,100624.94
2023-01-31T11:34:58.242Z,100625.16
2023-01-31T11:37:27.684Z,100615.41
2023-01-31T11:39:57.086Z,100611.62
2023-01-31T11:42:27.623Z,100596.00
2023-01-31T11:44:58.136Z,100571.19
2023-01-31T11:47:34.666Z,100570.69
2023-01-31T11:50:03.964Z,100571.56
2023-01-31T11:52:34.772Z,100570.25
2023-01-31T11:55:07.667Z,100556.69
2023-01-31T11:57:39.445Z,100565.81
2023-01-31T12:00:21.663Z,100542.37
2023-01-31T12:02:55.089Z,100537.25
2023-01-31T12:05:37.102Z,100530.44
2023-01-31T12:08:06.513Z,100524.63
2023-01-31T12:10:43.592Z,100524.91
2023-01-31T12:13:19.547Z,100511.03
2023-01-31T12:15:55.440Z,100504.78
2023-01-31T12:18:39.447Z,100501.37
2023-01-31T12:21:14.388Z,100491.09
2023-01-31T12:23:57.111Z,100504.41
2023-01-31T12:26:36.063Z,100491.25
2023-01-31T12:29:25.465Z,100483.44
2023-01-31T12:32:10.475Z,100474.41
2023-01-31T12:35:01.649Z,100458.25
2023-01-31T12:37:41.561Z,100463.87
2023-01-31T12:40:29.565Z,100461.28
2023-01-31T12:43:02.270Z,100454.09
2023-01-31T12:45:53.079Z,100459.16
2023-01-31T12:48:50.756Z,100460.44
2023-01-31T12:51:36.518Z,100453.59
2023-01-31T12:54:20.600Z,100433.97
2023-01-31T12:57:00.115Z,100442.69
2023-01-31T12:59:42.011Z,100436.47
2023-01-31T13:02:26.672Z,100437.75
2023-01-31T13:05:00.313Z,100432.28
2023-01-31T13:07:35.158Z,100433.47
2023-01-31T13:10:06.723Z,100435.06
2023-01-31T13:12:37.570Z,100414.34
2023-01-31T13:15:15.540Z,100403.75
2023-01-31T13:17:49.170Z,100393.56
2023-01-31T13:20:27.909Z,100383.19
2023-01-31T13:23:00.274Z,100378.91
2023-01-31T13:25:38.711Z,100391.69
2023-01-31T13:28:14.479Z,100400.41
2023-01-31T13:30:46.009Z,100387.88
2023-01-31T13:33:30.881Z,100391.75
2023-01-31T13:36:08.124Z,100400.03
2023-01-31T13:38:40.768Z,100394.41
2023-01-31T13:41:18.555Z,100396.69
2023-01-31T13:43:46.751Z,100403.13
2023-01-31T13:46:19.803Z,100397.09
2023-01-31T13:48:54.708Z,100390.28
2023-01-31T13:51:26.383Z,100389.87
2023-01-31T13:53:59.591Z,100392.31
2023-01-31T13:56:30.529Z,100373.34
2023-01-31T13:58:59.423Z,100384.25
2023-01-31T14:01:30.078Z,100364.34
2023-01-31T14:04:25.983Z,100366.03
2023-01-31T14:07:14.310Z,100383.94
2023-01-31T14:09:46.412Z,100375.38
2023-01-31T14:12:33.360Z,100386.53
2023-01-31T14:15:02.771Z,100383.37
2023-01-31T14:18:00.138Z,100378.41
2023-01-31T14:20:32.197Z,100380.91
2023-01-31T14:23:32.524Z,100373.00
2023-01-31T14:26:00.892Z,100374.09
2023-01-31T14:28:29.163Z,100379.94
2023-01-31T14:30:57.469Z,100382.69
2023-01-31T14:33:30.433Z,100385.53
2023-01-31T14:36:34.032Z,100388.81
2023-01-31T14:39:28.838Z,100386.59
2023-01-31T14:42:14.994Z,100400.22
2023-01-31T14:44:55.788Z,100401.75
2023-01-31T14:47:41.641Z,100401.81
2023-01-31T14:50:33.209Z,100412.06
2023-01-31T14:53:18.744Z,100408.31
2023-01-31T14:56:01.747Z,100405.69
2023-01-31T14:58:34.234Z,100419.09
2023-01-31T15:01:06.423Z,100400.63
2023-01-31T15:03:38.657Z,100406.59
2023-01-31T15:06:11.676Z,100397.91
2023-01-31T15:08:44.808Z,100397.28
2023-01-31T15:11:41.368Z,100403.34
2023-01-31T15:14:34.282Z,100400.97
2023-01-31T15:17:27.188Z,100401.16
2023-01-31T15:20:07.542Z,100394.06
2023-01-31T15:22:41.394Z,100391.12
2023-01-31T15:25:26.338Z,100380.69
2023-01-31T15:27:57.844Z,100385.03
2023-01-31T15:30:29.038Z,100382.87
2023-01-31T15:33:01.609Z,100392.00
2023-01-31T15:35:32.299Z,100391.75
2023-01-31T15:38:05.096Z,100386.09
2023-01-31T15:40:34.599Z,100394.97
2023-01-31T15:43:22.864Z,100384.06
2023-01-31T15:45:52.647Z,100396.84
2023-01-31T15:48:22.719Z,100398.22
2023-01-31T15:50:52.309Z,100389.34
2023-01-31T15:53:23.451Z,100387.78
2023-01-31T15:55:56.870Z,100385.97
2023-01-31T15:58:28.216Z,100394.22
2023-01-31T16:00:59.361Z,100387.16
2023-01-31T16:03:31.544Z,100381.62
2023-01-31T16:06:01.982Z,100386.88
2023-01-31T16:08:34.758Z,100388.69
2023-01-31T16:11:09.597Z,100380.22
2023-01-31T16:13:40.695Z,100376.00
2023-01-31T16:16:11.176Z,100379.16
2023-01-31T16:18:40.024Z,100371.75
2023-01-31T16:21:17.442Z,100380.53
2023-01-31T16:23:45.821Z,100384.28
2023-01-31T16:26:21.599Z,100387.16
2023-01-31T16:28:54.786Z,100396.69
2023-01-31T16:31:24.847Z,100380.13
2023-01-31T16:33:55.414Z,100390.00
2023-01-31T16:36:26.151Z,100403.31
2023-01-31T16:39:01.301Z,100394.97
2023-01-31T16:41:45.415Z,100385.69
2023-01-31T16:44:18.351Z,100383.00
2023-01-31T16:46:47.917Z,100382.91
2023-01-31T16:49:22.030Z,100400.88
2023-01-31T16:52:08.773Z,100390.97
2023-01-31T16:55:02.488Z,100388.78
2023-01-31T16:57:38.850Z,100387.81
2023-01-31T17:00:28.762Z,100381.25
2023-01-31T17:02:59.988Z,100384.81
2023-01-31T17:05:31.267Z,100368.03
2023-01-31T17:08:00.342Z,100375.44
2023-01-31T17:10:30.509Z,100381.16
2023-01-31T17:13:02.545Z,100378.44
2023-01-31T17:15:30.879Z,100384.34
2023-01-31T17:18:00.248Z,100368.16
2023-01-31T17:20:28.334Z,100374.75
2023-01-31T17:23:02.998Z,100365.94
2023-01-31T17:25:34.591Z,100366.37
2023-01-31T17:28:02.950Z,100376.53
2023-01-31T17:30:31.707Z,100371.94
2023-01-31T17:33:01.891Z,100372.44
2023-01-31T17:35:33.657Z,100358.22
2023-01-31T17:38:01.721Z,100352.00
2023-01-31T17:40:30.403Z,100362.13
2023-01-31T17:43:00.451Z,100371.25
2023-01-31T17:45:29.259Z,100366.47
2023-01-31T17:47:57.527Z,100368.69
2023-01-31T17:50:29.585Z,100352.91
2023-01-31T17:52:58.201Z,100360.19
2023-01-31T17:55:26.747Z,100360.41
2023-01-31T17:57:54.861Z,100357.28
2023-01-31T18:00:23.010Z,100375.19
2023-01-31T18:02:52.632Z,100367.03
2023-01-31T18:05:33.462Z,100363.75
2023-01-31T18:08:07.794Z,100364.00
2023-01-31T18:10:35.880Z,100348.03
2023-01-31T18:13:03.966Z,100352.66
2023-01-31T18:15:32.257Z,100347.53
2023-01-31T18:18:00.328Z,100330.78
2023-01-31T18:20:28.415Z,100327.09
2023-01-31T18:22:56.601Z,100322.47
2023-01-31T18:25:26.111Z,100316.78
2023-01-31T18:27:54.164Z,100324.91
2023-01-31T18:30:22.618Z,100305.84
2023-01-31T18:32:50.613Z,100306.09
2023-01-31T18:35:21.379Z,100302.50
2023-01-31T18:37:50.112Z,100303.06
2023-01-31T18:40:18.738Z,100300.19
2023-01-31T18:42:48.251Z,100307.72
2023-01-31T18:45:16.641Z,100309.06
2023-01-31T18:47:44.607Z,100301.75
2023-01-31T18:50:12.808Z,100301.13
2023-01-31T18:52:43.903Z,100305.53
2023-01-31T18:55:12.231Z,100315.00
2023-01-31T18:57:40.518Z,100323.84
2023-01-31T19:00:11.364Z,100317.78
2023-01-31T19:02:39.449Z,100313.31
2023-01-31T19:05:09.074Z,100315.50
2023-01-31T19:07:37.157Z,100324.09
2023-01-31T19:10:05.702Z,100316.56
2023-01-31T19:12:34.201Z,100335.31
2023-01-31T19:15:02.451Z,100333.62
2023-01-31T19:17:31.812Z,100340.28
2023-01-31T19:20:00.076Z,100325.81
2023-01-31T19:22:28.650Z,100333.19
2023-01-31T19:24:57.562Z,100327.59
2023-01-31T19:27:26.843Z,100320.91
2023-01-31T19:29:54.939Z,100343.44
2023-01-31T19:32:23.009Z,100346.22
2023-01-31T19:34:54.128Z,100350.91
2023-01-31T19:37:22.318Z,100345.94
2023-01-31T19:39:50.386Z,100336.59
2023-01-31T19:42:18.628Z,100335.16
2023-01-31T19:44:46.591Z,100328.84
2023-01-31T19:47:14.625Z,100338.78
2023-01-31T19:49:42.993Z,100333.94
2023-01-31T19:52:12.336Z,100331.28
2023-01-31T19:54:41.340Z,100326.97
2023-01-31T19:57:09.596Z,100339.69
2023-01-31T19:59:37.666Z,100338.25
2023-01-31T20:02:05.718Z,100347.50
2023-01-31T20:04:33.957Z,100359.47
2023-01-31T20:07:02.013Z,100358.38
2023-01-31T20:09:31.411Z,100362.22
2023-01-31T20:11:59.729Z,100355.16
2023-01-31T20:14:28.665Z,100359.06
2023-01-31T20:16:56.831Z,100360.13
2023-01-31T20:19:25.174Z,100358.19
2023-01-31T20:21:53.451Z,100357.25
2023-01-31T20:24:21.426Z,100358.75
2023-01-31T20:26:51.182Z,100367.06
2023-01-31T20:29:19.295Z,100381.00
2023-01-31T20:31:48.639Z,100375.34
2023-01-31T20:34:16.958Z,100380.22
2023-01-31T20:36:44.965Z,100374.69
2023-01-31T20:39:13.346Z,100378.50
2023-01-31T20:41:41.648Z,100381.50
2023-01-31T20:44:10.971Z,100386.13
2023-01-31T20:46:38.906Z,100377.66
2023-01-31T20:49:07.112Z,100375.72
2023-01-31T20:51:35.177Z,100383.13
2023-01-31T20:54:03.923Z,100388.78
2023-01-31T20:56:32.173Z,100394.16
2023-01-31T20:59:00.273Z,100384.94
2023-01-31T21:01:29.779Z,100393.31
2023-01-31T21:03:58.005Z,100403.13
2023-01-31T21:06:25.907Z,100404.72
2023-01-31T21:08:55.227Z,100400.97
2023-01-31T21:11:23.776Z,100404.31
2023-01-31T21:13:51.904Z,100407.13
2023-01-31T21:16:19.883Z,100404.41
2023-01-31T21:18:49.546Z,100404.41
2023-01-31T21:21:23.393Z,100407.31
2023-01-31T21:23:53.374Z,100409.50
2023-01-31T21:26:23.131Z,100412.91
2023-01-31T21:28:53.015Z,100414.81
2023-01-31T21:31:21.911Z,100408.91
2023-01-31T21:33:52.879Z,100420.94
2023-01-31T21:36:23.486Z,100414.81
2023-01-31T21:38:52.309Z,100407.88
2023-01-31T21:41:38.061Z,100411.94
2023-01-31T21:44:06.993Z,100411.28
2023-01-31T21:46:35.582Z,100403.81
2023-01-31T21:49:05.213Z,100412.84
2023-01-31T21:51:33.226Z,100412.84
2023-01-31T21:54:01.521Z,100411.06
2023-01-31T21:56:30.731Z,100411.53
2023-01-31T21:58:58.697Z,100402.41
2023-01-31T22:01:28.688Z,100405.81
2023-01-31T22:03:58.126Z,100403.03
2023-01-31T22:06:31.505Z,100404.03
2023-01-31T22:09:01.773Z,100400.69
2023-01-31T22:11:32.965Z,100407.41
2023-01-31T22:14:02.863Z,100408.28
2023-01-31T22:16:31.084Z,100409.22
2023-01-31T22:19:00.145Z,100405.63
2023-01-31T22:21:31.796Z,100411.75
2023-01-31T22:24:02.485Z,100419.78
2023-01-31T22:26:32.389Z,100416.63
2023-01-31T22:29:02.931Z,100410.91
2023-01-31T22:31:32.248Z,100414.38
2023-01-31T22:34:01.048Z,100416.16
2023-01-31T22:36:30.601Z,100410.91
2023-01-31T22:38:58.940Z,100413.06
2023-01-31T22:41:27.104Z,100408.22
2023-01-31T22:43:56.038Z,100406.81
2023-01-31T22:46:26.281Z,100404.94
2023-01-31T22:48:55.487Z,100398.12
2023-01-31T22:51:25.998Z,100410.72
2023-01-31T22:53:56.626Z,100402.41
2023-01-31T22:56:26.619Z,100410.34
2023-01-31T22:58:59.295Z,100413.75
2023-01-31T23:01:29.623Z,100413.31
2023-01-31T23:03:59.260Z,100414.94
2023-01-31T23:06:28.767Z,100413.31
2023-01-31T23:08:58.780Z,100412.69
2023-01-31T23:11:27.350Z,100407.72
2023-01-31T23:13:55.432Z,100404.22
2023-01-31T23:16:45.912Z,100403.69
2023-01-31T23:19:15.160Z,100414.19
2023-01-31T23:21:44.352Z,100406.63
2023-01-31T23:24:15.397Z,100409.91
2023-01-31T23:26:44.168Z,100417.19
2023-01-31T23:29:12.354Z,100424.44
2023-01-31T23:31:40.688Z,100422.25
2023-01-31T23:34:09.013Z,100428.94
2023-01-31T23:36:36.994Z,100439.56
2023-01-31T23:39:05.369Z,100433.81
2023-01-31T23:41:34.977Z,100430.66
2023-01-31T23:44:03.644Z,100431.03
2023-01-31T23:46:31.795Z,100419.94
2023-01-31T23:48:59.991Z,100421.25
2023-01-31T23:51:30.692Z,100413.16
2023-01-31T23:53:58.653Z,100420.03
2023-01-31T23:56:27.158Z,100414.00
2023-01-31T23:58:56.773Z,100410.22
